x

Cape San Martin - 55nm West Nw Of Morro Bay, Ca (46028) Wave Buoy

11:50pm - Sat 24th Sep 2016 All times are PDT. -7 hours from GMT.

  • Sig Wave height 7.2ft
  • Swell Direction
  • Peak Period 16s
  • Average Period 7s
  • Wind
    11mph, 13mph gusts
  • Sea Temp 56°f
  • Air Temp 60°f
  • Sea Pressure 1016.8mb
  • Cape San Martin - 55nm West Nw Of Morro Bay, Ca
  • Cape San Martin - 55nm West Nw Of Morro Bay, Ca

More Historic Weather Station data

Upgrade to MSW Pro to gain access to the past 30 days of data for over 8000 Wavebouys and Weather Stations around the globe.

Join Pro

Comparision Forecast

View Surf forecast
   
Sat 09/24 11:50pm 7ft 16s 7s 11 13 mph 1016.8mb 56f 60f
10:50pm 7ft 16s 7s 16 18 mph 1016.4mb 56f 60f
9:50pm 6ft 16s 7s 18 20 mph 1016.3mb 56f 61f
8:50pm 6ft 16s 7s 18 25 mph 1016.3mb 57f 61f
7:50pm 6ft 16s 7s 18 20 mph 1016.2mb 57f 61f
6:50pm 6ft 17s 7s 16 18 mph 1016.2mb 58f 61f
5:50pm 5.5ft 16s 7s 18 20 mph 1016.2mb 58f 61f
4:50pm 5.5ft 17s 7s 18 20 mph 1016.4mb 58f 61f
3:50pm 5ft 17s 7s 16 18 mph 1016.9mb 58f 60f
2:50pm 5ft 17s 6s 16 18 mph 1017.6mb 58f 60f
1:50pm 5ft 17s 7s 16 18 mph 1018.3mb 58f 60f
12:50pm 6ft 16s 6s 11 13 mph 1018.7mb 58f 60f
11:50am 5.5ft 17s 6s 9 11 mph 1018.7mb 57f 59f
10:50am 6ft 17s 6s 9 11 mph 1019mb 57f 59f
9:50am 6ft 17s 6s 13 18 mph 1018.7mb 57f 58f
8:50am 6ft 17s 6s 16 20 mph 1018.6mb 57f 58f
7:50am 6ft 17s 6s 18 22 mph 1018.2mb 57f 59f
6:50am 6.5ft 17s 6s 18 22 mph 1017.7mb 57f 60f
5:50am 6.5ft 7s 6s 18 22 mph 1017.4mb 57f 60f
4:50am 7.5ft 17s 6s 20 25 mph 1017.2mb 57f 61f
3:50am 7ft 7s 6s 22 29 mph 1017.7mb 57f 61f
2:50am 7ft 7s 6s 25 29 mph 1017.9mb 58f 61f
12:50am 8ft 7s 6s 25 31 mph 1018.4mb 58f 61f
Fri 09/23 11:50pm 8ft 7s 6s 25 31 mph 1018.4mb 58f 61f
10:50pm 8ft 17s 6s 27 31 mph 1018.4mb 58f 61f
9:50pm 9ft 8s 6s 29 36 mph 1018mb 58f 60f
8:50pm 8ft 8s 6s 29 36 mph 1017.9mb 58f 60f
7:50pm 9ft 6s 6s 31 38 mph 1017.3mb 57f 60f
6:50pm 8.5ft 8s 6s 29 38 mph 1017.5mb 57f 60f
5:50pm 8.5ft 7s 6s 31 38 mph 1017.4mb 57f 61f
4:50pm 8ft 7s 6s 29 36 mph 1017.8mb 58f 61f
3:50pm 8ft 8s 6s 29 36 mph 1017.7mb 58f 61f
2:50pm 8ft 7s 6s 27 34 mph 1018.1mb 58f 60f
1:50pm 7.5ft 8s 6s 27 34 mph 1018.7mb 58f 60f
12:50pm 8ft 8s 6s 22 27 mph 1019.2mb 58f 60f
10:50am 7.5ft 8s 6s 22 27 mph 1019.6mb 58f 59f
9:50am 8ft 8s 6s 22 27 mph 1019.1mb 58f 59f
8:50am 8ft 8s 6s 22 27 mph 1019mb 58f 59f
7:50am 8ft 8s 6s 22 27 mph 1018.6mb 58f 59f
5:50am 8ft 8s 6s 25 29 mph 1017.5mb 58f 59f
4:50am 8ft 8s 6s 25 29 mph 1017.6mb 58f 59f
3:50am 8ft 8s 6s 25 31 mph 1017.6mb 58f 59f
2:50am 8ft 8s 6s 25 31 mph 1017.8mb 58f 59f
1:50am 8ft 8s 6s 25 31 mph 1017.9mb 58f 59f
12:50am 8ft 8s 6s 27 34 mph 1017.7mb 59f 59f
Thu 09/22 11:50pm 8ft 6s 6s 27 31 mph 1017.9mb 59f 59f
10:50pm 9ft 8s 6s 27 34 mph 1017.6mb 59f 59f
9:50pm 8ft 7s 6s 27 34 mph 1017.4mb 59f 59f
8:50pm 7.5ft 7s 6s 31 36 mph 1016.7mb 59f 60f
7:50pm 8ft 7s 6s 29 38 mph 1016.5mb 59f 60f
6:50pm 8ft 8s 6s 29 36 mph 1016.7mb 59f 60f
5:50pm 8ft 8s 6s 27 34 mph 1016.8mb 59f 60f
4:50pm 8.5ft 8s 6s 25 31 mph 1017.1mb 59f 60f
3:50pm 8ft 8s 6s 27 34 mph 1017.5mb 59f 60f
2:50pm 8ft 8s 6s 25 31 mph 1018mb 59f 60f
1:50pm 8ft 8s 6s 25 29 mph 1018.6mb 59f 60f
12:50pm 7.5ft 6s 6s 22 27 mph 1018.7mb 58f 60f
11:50am 8ft 7s 6s 22 27 mph 1019.1mb 58f 60f
10:50am 8.5ft 8s 6s 25 29 mph 1019.1mb 58f 60f
9:50am 9ft 8s 6s 25 29 mph 1018.4mb 58f 60f
8:50am 10ft 8s 7s 27 31 mph 1017.7mb 58f 60f
7:50am 9ft 8s 7s 27 31 mph 1017mb 59f 60f
6:50am 9.5ft 8s  -  25 29 mph 1016.7mb 59f 60f
5:50am 9.5ft 8s 6s 22 27 mph 1016.3mb 59f 60f
4:50am 9ft 8s 6s 29 36 mph 1015.4mb 59f 60f
3:50am 9.5ft 10s 7s 25 31 mph 1015.2mb 59f 60f
2:50am 9.5ft 9s 6s 27 31 mph 1014.9mb 60f 60f
1:50am 10ft 8s 6s 29 36 mph 1014.5mb 60f 60f
12:50am 10ft 8s 6s 27 34 mph 1014.4mb 60f 60f
Wed 09/21 11:50pm 9.5ft 10s 6s 29 34 mph 1014.5mb 60f 60f
10:50pm 10ft 8s 6s 31 38 mph 1013.9mb 60f 60f
8:50pm 11.5ft 9s 7s 34 40 mph 1013mb 60f 60f
7:50pm 12ft 8s 7s 36 43 mph 1012.2mb 60f 60f
6:50pm 10.5ft 8s 6s 31 40 mph 1012.6mb 61f 61f
5:50pm 10ft 8s 6s 34 40 mph 1012.5mb 61f 61f
4:50pm 10ft 9s 6s 31 36 mph 1012.9mb 61f 61f
3:50pm 10ft 7s 6s 29 36 mph 1013.3mb 61f 60f
2:50pm 9ft 9s 6s 27 34 mph 1013.5mb 61f 60f
1:50pm 10ft 10s 7s 25 31 mph 1014mb 61f 60f
12:50pm 9.5ft 10s 7s 27 34 mph 1014.2mb 61f 60f
11:50am 8ft 11s 6s 27 31 mph 1014.4mb 61f 60f
10:50am 9ft 11s 7s 25 29 mph 1014.6mb 61f 60f
9:50am 8.5ft 9s 7s 22 29 mph 1014.5mb 61f 61f
8:50am 8.5ft 8s 7s 20 25 mph 1014.3mb 61f 61f